createdAt,value
2022-08-07T00:00:34.602Z,5.20
2022-08-07T00:03:11.405Z,4.90
2022-08-07T00:05:40.533Z,4.40
2022-08-07T00:08:17.709Z,5.70
2022-08-07T00:10:57.635Z,4.50
2022-08-07T00:13:31.081Z,7.10
2022-08-07T00:16:05.759Z,6.10
2022-08-07T00:18:41.159Z,4.20
2022-08-07T00:21:57.430Z,4.60
2022-08-07T00:24:08.442Z,6.60
2022-08-07T00:26:58.679Z,5.90
2022-08-07T00:29:31.328Z,6.40
2022-08-07T00:32:11.900Z,3.80
2022-08-07T00:34:43.948Z,4.80
2022-08-07T00:37:18.238Z,4.90
2022-08-07T00:39:57.166Z,6.30
2022-08-07T00:42:29.771Z,5.20
2022-08-07T00:45:01.114Z,6.10
2022-08-07T00:48:07.548Z,4.60
2022-08-07T00:50:50.694Z,4.90
2022-08-07T00:53:38.473Z,5.60
2022-08-07T00:56:30.375Z,6.90
2022-08-07T00:59:07.230Z,4.50
2022-08-07T01:01:41.362Z,6.10
2022-08-07T01:04:24.954Z,5.40
2022-08-07T01:06:58.097Z,4.40
2022-08-07T01:10:05.124Z,5.00
2022-08-07T01:12:29.779Z,4.00
2022-08-07T01:15:06.877Z,6.90
2022-08-07T01:17:45.659Z,5.00
2022-08-07T01:20:17.475Z,4.30
2022-08-07T01:23:00.638Z,4.10
2022-08-07T01:25:55.798Z,6.70
2022-08-07T01:28:34.923Z,5.50
2022-08-07T01:31:06.001Z,5.30
2022-08-07T01:33:53.782Z,6.40
2022-08-07T01:36:33.231Z,7.50
2022-08-07T01:39:16.968Z,7.00
2022-08-07T01:42:37.208Z,6.80
2022-08-07T01:44:52.914Z,6.70
2022-08-07T01:48:19.534Z,5.70
2022-08-07T01:50:13.107Z,7.40
2022-08-07T01:52:54.022Z,6.90
2022-08-07T01:55:27.889Z,5.30
2022-08-07T01:58:05.901Z,7.80
2022-08-07T02:01:09.908Z,6.90
2022-08-07T02:03:50.436Z,7.20
2022-08-07T02:06:31.344Z,5.70
2022-08-07T02:09:33.477Z,7.10
2022-08-07T02:12:18.929Z,6.80
2022-08-07T02:14:56.925Z,6.30
2022-08-07T02:17:37.580Z,5.80
2022-08-07T02:20:19.887Z,5.70
2022-08-07T02:23:02.140Z,6.30
2022-08-07T02:26:31.542Z,6.30
2022-08-07T02:28:27.824Z,6.40
2022-08-07T02:31:18.725Z,5.70
2022-08-07T02:34:02.791Z,9.40
2022-08-07T02:36:41.263Z,8.00
2022-08-07T02:39:43.611Z,5.40
2022-08-07T02:42:19.596Z,6.90
2022-08-07T02:44:53.063Z,6.00
2022-08-07T02:47:23.943Z,7.60
2022-08-07T02:50:11.679Z,6.90
2022-08-07T02:53:03.356Z,6.60
2022-08-07T02:56:02.286Z,5.70
2022-08-07T02:58:33.932Z,6.40
2022-08-07T03:01:06.067Z,6.70
2022-08-07T03:03:49.849Z,5.80
2022-08-07T03:06:33.056Z,6.90
2022-08-07T03:09:11.311Z,5.30
2022-08-07T03:11:51.501Z,6.00
2022-08-07T03:14:27.879Z,5.80
2022-08-07T03:16:59.681Z,8.60
2022-08-07T03:19:37.642Z,7.40
2022-08-07T03:22:08.493Z,6.70
2022-08-07T03:24:51.593Z,6.10
2022-08-07T03:27:30.356Z,6.30
2022-08-07T03:30:11.474Z,6.40
2022-08-07T03:32:49.162Z,6.40
2022-08-07T03:35:37.896Z,5.60
2022-08-07T03:38:21.302Z,7.20
2022-08-07T03:41:04.477Z,7.10
2022-08-07T03:43:37.850Z,6.20
2022-08-07T03:46:18.392Z,6.00
2022-08-07T03:49:02.855Z,5.80
2022-08-07T03:51:47.286Z,7.00
2022-08-07T03:54:35.364Z,5.40
2022-08-07T03:57:10.901Z,5.70
2022-08-07T04:00:12.078Z,10.20
2022-08-07T04:02:51.515Z,5.30
2022-08-07T04:05:40.681Z,5.20
2022-08-07T04:08:21.188Z,5.80
2022-08-07T04:11:28.853Z,6.20
2022-08-07T04:14:10.607Z,7.00
2022-08-07T04:16:38.094Z,6.70
2022-08-07T04:19:15.339Z,6.20
2022-08-07T04:22:04.839Z,5.60
2022-08-07T04:24:46.643Z,8.10
2022-08-07T04:27:25.718Z,5.30
2022-08-07T04:30:02.689Z,5.40
2022-08-07T04:32:58.481Z,4.10
2022-08-07T04:35:37.781Z,6.50
2022-08-07T04:38:14.310Z,6.90
2022-08-07T04:40:52.616Z,8.10
2022-08-07T04:44:09.922Z,6.80
2022-08-07T04:46:59.481Z,8.00
2022-08-07T04:50:24.659Z,5.90
2022-08-07T04:54:06.533Z,7.30
2022-08-07T04:58:14.767Z,7.50
2022-08-07T05:01:13.870Z,8.50
2022-08-07T05:04:17.302Z,7.50
2022-08-07T05:07:20.495Z,7.60
2022-08-07T05:10:08.188Z,5.40
2022-08-07T05:14:53.042Z,6.70
2022-08-07T05:16:11.256Z,10.60
2022-08-07T05:18:54.673Z,5.70
2022-08-07T05:22:00.235Z,4.90
2022-08-07T05:24:30.411Z,5.80
2022-08-07T05:28:03.289Z,7.20
2022-08-07T05:30:32.738Z,5.10
2022-08-07T05:33:11.446Z,5.30
2022-08-07T05:35:42.554Z,8.40
2022-08-07T05:39:00.838Z,4.20
2022-08-07T05:41:14.457Z,4.30
2022-08-07T05:44:11.828Z,6.10
2022-08-07T05:46:54.235Z,5.20
2022-08-07T05:49:41.140Z,4.80
2022-08-07T05:52:13.701Z,5.20
2022-08-07T05:54:55.493Z,4.50
2022-08-07T05:57:34.605Z,4.90
2022-08-07T06:00:16.317Z,5.00
2022-08-07T06:03:03.884Z,5.80
2022-08-07T06:05:40.603Z,6.30
2022-08-07T06:08:30.865Z,5.00
2022-08-07T06:11:09.214Z,5.60
2022-08-07T06:14:11.568Z,4.90
2022-08-07T06:16:35.679Z,6.20
2022-08-07T06:19:06.499Z,4.90
2022-08-07T06:22:15.027Z,9.40
2022-08-07T06:24:57.777Z,5.30
2022-08-07T06:28:00.636Z,5.20
2022-08-07T06:30:35.628Z,5.10
2022-08-07T06:33:16.907Z,5.90
2022-08-07T06:36:13.264Z,5.90
2022-08-07T06:38:59.012Z,6.20
2022-08-07T06:42:05.370Z,6.90
2022-08-07T06:45:12.821Z,5.30
2022-08-07T06:47:58.662Z,5.60
2022-08-07T06:50:37.799Z,5.70
2022-08-07T06:53:18.803Z,3.90
2022-08-07T06:56:15.399Z,4.70
2022-08-07T07:00:13.058Z,4.50
2022-08-07T07:01:48.657Z,4.80
2022-08-07T07:04:28.418Z,6.50
2022-08-07T07:07:58.333Z,4.20
2022-08-07T07:10:03.228Z,4.60
2022-08-07T07:12:48.513Z,3.80
2022-08-07T07:15:32.606Z,2.40
2022-08-07T07:18:37.662Z,2.60
2022-08-07T07:22:05.347Z,3.70
2022-08-07T07:24:22.970Z,8.80
2022-08-07T07:26:54.312Z,3.50
2022-08-07T07:29:56.806Z,6.40
2022-08-07T07:32:22.097Z,3.80
2022-08-07T07:34:59.167Z,3.70
2022-08-07T07:37:58.947Z,2.60
2022-08-07T07:40:21.652Z,2.80
2022-08-07T07:42:56.267Z,3.50
2022-08-07T07:46:37.635Z,3.30
2022-08-07T07:48:35.196Z,4.00
2022-08-07T07:51:08.077Z,3.90
2022-08-07T07:53:51.343Z,2.80
2022-08-07T07:56:30.680Z,5.10
2022-08-07T07:59:06.052Z,2.60
2022-08-07T08:02:03.465Z,3.30
2022-08-07T08:04:28.718Z,4.00
2022-08-07T08:07:00.723Z,3.00
2022-08-07T08:09:52.407Z,3.60
2022-08-07T08:12:51.583Z,3.70
2022-08-07T08:15:24.847Z,3.60
2022-08-07T08:17:58.770Z,2.80
2022-08-07T08:20:50.808Z,3.80
2022-08-07T08:23:38.973Z,4.90
2022-08-07T08:26:31.113Z,3.40
2022-08-07T08:29:03.512Z,3.60
2022-08-07T08:32:18.133Z,4.50
2022-08-07T08:34:33.716Z,5.90
2022-08-07T08:37:09.889Z,3.40
2022-08-07T08:40:11.498Z,2.40
2022-08-07T08:43:42.412Z,3.60
2022-08-07T08:46:45.918Z,3.60
2022-08-07T08:50:05.306Z,4.20
2022-08-07T08:53:04.165Z,4.30
2022-08-07T08:56:08.332Z,4.10
2022-08-07T08:58:44.330Z,4.40
2022-08-07T09:01:40.194Z,3.00
2022-08-07T09:04:33.650Z,3.60
2022-08-07T09:07:27.121Z,4.90
2022-08-07T09:10:15.535Z,3.50
2022-08-07T09:13:37.023Z,3.30
2022-08-07T09:16:30.179Z,4.60
2022-08-07T09:19:51.355Z,5.00
2022-08-07T09:24:30.559Z,3.90
2022-08-07T09:26:02.085Z,4.70
2022-08-07T09:30:04.151Z,7.10
2022-08-07T09:31:52.350Z,3.90
2022-08-07T09:34:33.100Z,3.30
2022-08-07T09:37:13.955Z,3.70
2022-08-07T09:40:06.239Z,3.70
2022-08-07T09:43:01.241Z,3.00
2022-08-07T09:47:51.947Z,5.90
2022-08-07T09:50:01.994Z,4.10
2022-08-07T09:52:34.081Z,3.60
2022-08-07T09:55:29.252Z,5.50
2022-08-07T09:59:07.524Z,2.00
2022-08-07T10:02:36.762Z,2.80
2022-08-07T10:06:00.188Z,2.30
2022-08-07T10:09:15.605Z,3.60
2022-08-07T10:12:53.288Z,5.00
2022-08-07T10:15:48.433Z,1.80
2022-08-07T10:18:35.389Z,4.00
2022-08-07T10:22:12.592Z,2.60
2022-08-07T10:24:46.851Z,2.00
2022-08-07T10:27:46.406Z,3.90
2022-08-07T10:30:57.423Z,2.90
2022-08-07T10:34:05.625Z,4.10
2022-08-07T10:37:04.137Z,2.10
2022-08-07T10:40:15.385Z,3.80
2022-08-07T10:43:34.631Z,2.70
2022-08-07T10:46:22.550Z,5.30
2022-08-07T10:49:15.373Z,10.60
2022-08-07T10:52:13.402Z,5.20
2022-08-07T10:55:20.939Z,3.70
2022-08-07T10:58:59.524Z,2.60
2022-08-07T11:01:52.159Z,2.70
2022-08-07T11:05:24.101Z,3.20
2022-08-07T11:08:23.584Z,2.50
2022-08-07T11:11:28.069Z,2.20
2022-08-07T11:14:45.418Z,3.50
2022-08-07T11:17:49.005Z,4.50
2022-08-07T11:20:24.539Z,3.20
2022-08-07T11:23:57.188Z,2.00
2022-08-07T11:26:38.492Z,2.50
2022-08-07T11:29:42.153Z,3.00
2022-08-07T11:32:44.490Z,2.70
2022-08-07T11:35:26.847Z,2.40
2022-08-07T11:38:34.088Z,3.20
2022-08-07T11:41:22.112Z,2.90
2022-08-07T11:44:52.592Z,3.20
2022-08-07T11:48:02.678Z,6.00
2022-08-07T11:51:09.034Z,3.10
2022-08-07T11:54:25.408Z,4.10
2022-08-07T11:57:14.210Z,3.60
2022-08-07T12:00:12.127Z,3.30
2022-08-07T12:03:45.675Z,3.70
2022-08-07T12:06:39.506Z,2.80
2022-08-07T12:09:26.564Z,2.70
2022-08-07T12:12:13.196Z,3.70
2022-08-07T12:15:03.166Z,2.80
2022-08-07T12:17:59.386Z,3.00
2022-08-07T12:21:07.727Z,4.10
2022-08-07T12:24:06.941Z,2.20
2022-08-07T12:26:59.459Z,2.10
2022-08-07T12:29:55.244Z,3.70
2022-08-07T12:32:39.894Z,2.20
2022-08-07T12:35:12.753Z,2.20
2022-08-07T12:38:11.387Z,5.10
2022-08-07T12:40:47.467Z,2.60
2022-08-07T12:44:01.533Z,3.40
2022-08-07T12:46:43.236Z,2.80
2022-08-07T12:49:48.467Z,3.70
2022-08-07T12:52:35.821Z,4.50
2022-08-07T12:55:17.533Z,5.20
2022-08-07T12:58:02.018Z,7.50
2022-08-07T13:00:50.678Z,3.90
2022-08-07T13:04:32.586Z,2.40
2022-08-07T13:08:13.988Z,7.10
2022-08-07T13:12:03.278Z,3.20
2022-08-07T13:15:00.713Z,3.20
2022-08-07T13:17:59.359Z,2.80
2022-08-07T13:21:13.013Z,4.10
2022-08-07T13:24:25.593Z,2.50
2022-08-07T13:27:23.137Z,4.60
2022-08-07T13:30:19.411Z,2.90
2022-08-07T13:34:30.523Z,2.50
2022-08-07T13:36:48.369Z,3.90
2022-08-07T13:40:35.996Z,3.60
2022-08-07T13:43:12.086Z,2.90
2022-08-07T13:46:21.851Z,3.10
2022-08-07T13:48:59.615Z,2.70
2022-08-07T13:52:22.619Z,3.20
2022-08-07T13:54:33.449Z,2.70
2022-08-07T13:57:11.154Z,4.50
2022-08-07T13:59:55.127Z,3.10
2022-08-07T14:02:29.750Z,2.10
2022-08-07T14:05:15.868Z,2.30
2022-08-07T14:08:01.022Z,2.80
2022-08-07T14:10:41.969Z,2.40
2022-08-07T14:13:16.624Z,3.00
2022-08-07T14:15:56.881Z,4.50
2022-08-07T14:20:43.774Z,3.30
2022-08-07T14:22:40.437Z,2.80
2022-08-07T14:25:14.958Z,4.20
2022-08-07T14:28:11.456Z,2.40
2022-08-07T14:30:52.342Z,2.60
2022-08-07T14:33:25.126Z,4.10
2022-08-07T14:36:17.451Z,3.20
2022-08-07T14:38:50.462Z,3.20
2022-08-07T14:41:34.102Z,2.90
2022-08-07T14:44:29.945Z,5.20
2022-08-07T14:47:14.767Z,3.30
2022-08-07T14:49:58.123Z,3.40
2022-08-07T14:52:35.449Z,3.60
2022-08-07T14:55:06.170Z,3.00
2022-08-07T14:57:54.689Z,2.40
2022-08-07T15:00:48.873Z,3.30
2022-08-07T15:03:52.561Z,2.40
2022-08-07T15:06:25.954Z,3.20
2022-08-07T15:09:58.908Z,3.50
2022-08-07T15:12:26.308Z,2.20
2022-08-07T15:15:17.419Z,3.10
2022-08-07T15:18:03.468Z,2.90
2022-08-07T15:20:54.943Z,3.30
2022-08-07T15:26:45.607Z,3.10
2022-08-07T15:30:10.282Z,2.90
2022-08-07T15:32:15.534Z,2.50
2022-08-07T15:35:07.598Z,3.30
2022-08-07T15:38:04.566Z,3.70
2022-08-07T15:40:34.236Z,3.20
2022-08-07T15:43:33.249Z,3.00
2022-08-07T15:49:14.450Z,3.00
2022-08-07T15:52:01.862Z,2.40
2022-08-07T15:54:40.623Z,3.30
2022-08-07T15:57:39.257Z,2.50
2022-08-07T16:00:31.732Z,2.80
2022-08-07T16:03:47.355Z,4.20
2022-08-07T16:06:57.708Z,3.20
2022-08-07T16:09:41.855Z,4.30
2022-08-07T16:13:01.294Z,3.10
2022-08-07T16:16:47.629Z,3.50
2022-08-07T16:19:58.760Z,3.00
2022-08-07T16:23:05.511Z,5.00
2022-08-07T16:26:37.773Z,2.60
2022-08-07T16:30:11.428Z,4.20
2022-08-07T16:34:02.756Z,2.70
2022-08-07T16:37:01.781Z,3.90
2022-08-07T16:40:22.998Z,4.00
2022-08-07T16:44:06.075Z,3.60
2022-08-07T16:47:56.626Z,2.50
2022-08-07T16:51:21.575Z,5.00
2022-08-07T16:54:32.574Z,4.10
2022-08-07T16:58:03.540Z,5.70
2022-08-07T17:00:29.784Z,5.10
2022-08-07T17:04:04.499Z,4.70
2022-08-07T17:07:04.075Z,5.30
2022-08-07T17:10:09.294Z,3.70
2022-08-07T17:13:16.404Z,3.80
2022-08-07T17:16:33.557Z,3.40
2022-08-07T17:19:15.829Z,4.20
2022-08-07T17:21:53.435Z,3.70
2022-08-07T17:24:52.111Z,4.00
2022-08-07T17:27:55.924Z,4.90
2022-08-07T17:31:16.428Z,6.90
2022-08-07T17:34:18.337Z,4.30
2022-08-07T17:37:14.387Z,4.80
2022-08-07T17:40:17.656Z,4.60
2022-08-07T17:43:14.906Z,3.90
2022-08-07T17:46:18.725Z,4.50
2022-08-07T17:49:54.050Z,5.70
2022-08-07T17:52:50.145Z,3.10
2022-08-07T17:56:01.393Z,3.90
2022-08-07T17:58:47.070Z,5.60
2022-08-07T18:01:37.333Z,3.80
2022-08-07T18:04:41.548Z,3.20
2022-08-07T18:07:24.631Z,3.80
2022-08-07T19:00:54.932Z,8.20
2022-08-07T19:03:57.468Z,6.70
2022-08-07T19:07:01.498Z,6.80
2022-08-07T19:10:18.202Z,8.50
2022-08-07T19:13:22.986Z,8.30
2022-08-07T19:17:01.246Z,6.90
2022-08-07T19:19:38.574Z,6.20
2022-08-07T19:22:19.133Z,8.90
2022-08-07T19:25:05.698Z,8.80
2022-08-07T19:28:30.838Z,9.00
2022-08-07T19:31:04.299Z,8.20
2022-08-07T19:33:34.968Z,7.90
2022-08-07T19:36:08.876Z,7.20
2022-08-07T19:38:52.766Z,9.10
2022-08-07T19:41:44.974Z,7.50
2022-08-07T19:44:21.255Z,8.60
2022-08-07T19:46:57.689Z,8.40
2022-08-07T19:49:58.074Z,6.10
2022-08-07T19:52:02.922Z,7.40
2022-08-07T19:54:44.558Z,8.80
2022-08-07T19:58:01.396Z,8.40
2022-08-07T20:00:29.284Z,7.70
2022-08-07T20:03:35.209Z,10.00
2022-08-07T20:06:06.268Z,7.80
2022-08-07T20:08:50.692Z,7.00
2022-08-07T20:11:34.314Z,6.90
2022-08-07T20:14:23.231Z,8.10
2022-08-07T20:17:04.117Z,8.50
2022-08-07T20:19:48.308Z,5.70
2022-08-07T20:22:34.159Z,7.20
2022-08-07T20:25:12.794Z,6.70
2022-08-07T20:27:58.398Z,6.40
2022-08-07T20:30:35.360Z,5.90
2022-08-07T20:33:09.182Z,5.80
2022-08-07T20:36:03.555Z,8.60
2022-08-07T20:38:34.239Z,9.00
2022-08-07T20:41:03.669Z,8.40
2022-08-07T20:43:34.755Z,7.80
2022-08-07T20:46:25.874Z,10.20
2022-08-07T20:49:55.200Z,12.90
2022-08-07T20:51:48.906Z,21.10
2022-08-07T20:54:29.812Z,26.30
2022-08-07T20:57:05.344Z,21.30
2022-08-07T21:00:06.902Z,18.90
2022-08-07T21:02:54.165Z,19.10
2022-08-07T21:06:21.654Z,15.80
2022-08-07T21:09:13.662Z,9.60
2022-08-07T21:11:50.216Z,8.50
2022-08-07T21:14:32.884Z,7.50
2022-08-07T21:18:02.150Z,10.10
2022-08-07T21:20:10.212Z,9.60
2022-08-07T21:22:53.390Z,6.50
2022-08-07T21:25:30.541Z,8.80
2022-08-07T21:28:48.850Z,7.60
2022-08-07T21:32:47.114Z,6.60
2022-08-07T21:35:59.945Z,6.00
2022-08-07T21:38:44.587Z,6.00
2022-08-07T21:42:00.631Z,8.20
2022-08-07T21:44:57.244Z,7.90
2022-08-07T21:47:50.221Z,6.50
2022-08-07T21:50:26.259Z,7.20
2022-08-07T21:53:17.744Z,6.00
2022-08-07T21:56:35.839Z,6.10
2022-08-07T22:00:03.554Z,6.80
2022-08-07T22:02:45.292Z,8.50
2022-08-07T22:05:45.160Z,8.40
2022-08-07T22:08:13.136Z,9.40
2022-08-07T22:10:42.858Z,8.50
2022-08-07T22:13:16.335Z,9.50
2022-08-07T22:16:43.244Z,7.90
2022-08-07T22:19:30.478Z,7.10
2022-08-07T22:22:30.426Z,7.30
2022-08-07T22:25:08.358Z,7.30
2022-08-07T22:28:07.675Z,6.50
2022-08-07T22:31:45.684Z,6.80
2022-08-07T22:34:52.949Z,6.80
2022-08-07T22:38:05.707Z,8.00
2022-08-07T22:41:03.882Z,7.20
2022-08-07T22:43:56.424Z,6.20
2022-08-07T22:47:15.076Z,9.20
2022-08-07T22:50:33.702Z,6.30
2022-08-07T22:54:05.503Z,6.50
2022-08-07T22:57:07.319Z,7.00
2022-08-07T22:59:58.171Z,6.20
2022-08-07T23:02:54.228Z,8.70
2022-08-07T23:06:08.180Z,6.90
2022-08-07T23:10:00.868Z,9.00
2022-08-07T23:13:00.164Z,6.80
2022-08-07T23:16:06.280Z,8.10
2022-08-07T23:19:51.834Z,8.00
2022-08-07T23:22:57.518Z,8.20
2022-08-07T23:26:06.866Z,6.40
2022-08-07T23:29:16.553Z,8.30
2022-08-07T23:34:20.775Z,10.40
2022-08-07T23:35:25.789Z,8.30
2022-08-07T23:38:36.819Z,6.60
2022-08-07T23:41:33.323Z,8.80
2022-08-07T23:44:29.625Z,8.70
2022-08-07T23:47:29.869Z,7.50
2022-08-07T23:50:54.632Z,8.60
2022-08-07T23:53:50.954Z,7.70
2022-08-07T23:56:35.181Z,10.30
